createdAt,value
2023-03-06T00:01:32.307Z,3.17
2023-03-06T00:04:34.958Z,3.05
2023-03-06T00:07:37.785Z,3.28
2023-03-06T00:10:40.715Z,3.00
2023-03-06T00:13:43.278Z,3.50
2023-03-06T00:16:45.884Z,3.25
2023-03-06T00:19:48.472Z,3.17
2023-03-06T00:22:51.584Z,3.13
2023-03-06T00:25:54.240Z,3.20
2023-03-06T00:28:57.727Z,3.20
2023-03-06T00:32:00.413Z,3.30
2023-03-06T00:35:03.209Z,3.38
2023-03-06T00:38:06.012Z,3.17
2023-03-06T00:41:12.996Z,3.20
2023-03-06T00:44:15.627Z,3.40
2023-03-06T00:47:18.510Z,2.95
2023-03-06T00:50:21.167Z,2.90
2023-03-06T00:53:24.119Z,3.20
2023-03-06T00:56:26.710Z,3.17
2023-03-06T00:59:29.513Z,3.13
2023-03-06T01:02:32.623Z,3.10
2023-03-06T01:05:37.297Z,3.00
2023-03-06T01:08:41.791Z,2.80
2023-03-06T01:11:44.643Z,2.80
2023-03-06T01:14:47.279Z,3.22
2023-03-06T01:17:53.839Z,3.30
2023-03-06T01:20:56.497Z,3.30
2023-03-06T01:23:59.185Z,2.92
2023-03-06T01:27:01.882Z,2.80
2023-03-06T01:30:04.951Z,2.92
2023-03-06T01:33:07.712Z,3.05
2023-03-06T01:36:12.686Z,2.90
2023-03-06T01:39:15.352Z,3.00
2023-03-06T01:42:18.147Z,2.80
2023-03-06T01:45:20.807Z,2.88
2023-03-06T01:48:24.634Z,3.00
2023-03-06T01:51:32.705Z,2.90
2023-03-06T01:54:50.557Z,2.95
2023-03-06T01:57:57.871Z,2.63
2023-03-06T02:01:00.591Z,2.78
2023-03-06T02:04:03.577Z,2.80
2023-03-06T02:07:07.794Z,2.80
2023-03-06T02:10:11.176Z,2.63
2023-03-06T02:13:13.749Z,2.63
2023-03-06T02:16:17.805Z,2.60
2023-03-06T02:19:34.950Z,2.70
2023-03-06T02:22:48.831Z,2.90
2023-03-06T02:25:53.999Z,2.90
2023-03-06T02:28:59.333Z,2.80
2023-03-06T02:32:03.058Z,2.90
2023-03-06T02:35:07.241Z,2.85
2023-03-06T02:38:13.853Z,2.50
2023-03-06T02:41:17.494Z,2.55
2023-03-06T02:44:22.807Z,2.57
2023-03-06T02:47:25.587Z,2.50
2023-03-06T02:50:28.708Z,2.53
2023-03-06T02:53:31.808Z,2.67
2023-03-06T02:56:35.483Z,2.70
2023-03-06T02:59:38.603Z,2.80
2023-03-06T03:02:42.276Z,2.50
2023-03-06T03:05:44.882Z,2.80
2023-03-06T03:08:55.382Z,2.60
2023-03-06T03:11:58.709Z,2.40
2023-03-06T03:15:01.428Z,2.20
2023-03-06T03:18:05.290Z,2.20
2023-03-06T03:21:10.767Z,2.30
2023-03-06T03:24:13.627Z,2.53
2023-03-06T03:27:18.003Z,2.42
2023-03-06T03:30:21.069Z,2.33
2023-03-06T03:33:24.231Z,2.67
2023-03-06T03:36:27.681Z,2.58
2023-03-06T03:39:30.934Z,2.53
2023-03-06T03:42:34.038Z,2.42
2023-03-06T03:45:36.674Z,2.77
2023-03-06T03:48:40.565Z,2.92
2023-03-06T03:51:43.759Z,2.65
2023-03-06T03:54:46.503Z,2.20
2023-03-06T03:57:49.517Z,2.67
2023-03-06T04:00:52.339Z,2.10
2023-03-06T04:03:55.050Z,2.30
2023-03-06T04:06:58.206Z,2.90
2023-03-06T04:10:00.808Z,2.40
2023-03-06T04:13:08.781Z,2.33
2023-03-06T04:16:15.483Z,2.50
2023-03-06T04:19:18.584Z,2.30
2023-03-06T04:22:21.568Z,2.40
2023-03-06T04:25:24.592Z,2.50
2023-03-06T04:28:27.581Z,2.58
2023-03-06T04:31:30.452Z,2.73
2023-03-06T04:34:33.165Z,2.70
2023-03-06T04:37:36.334Z,2.80
2023-03-06T04:40:39.294Z,3.00
2023-03-06T04:43:42.003Z,2.55
2023-03-06T04:46:46.000Z,2.67
2023-03-06T04:49:48.627Z,2.80
2023-03-06T04:52:51.800Z,2.45
2023-03-06T04:55:54.382Z,2.40
2023-03-06T04:58:57.379Z,2.55
2023-03-06T05:02:00.002Z,2.50
2023-03-06T05:05:04.350Z,2.53
2023-03-06T05:08:07.343Z,2.58
2023-03-06T05:11:10.123Z,2.80
2023-03-06T05:14:12.867Z,2.85
2023-03-06T05:17:15.462Z,2.70
2023-03-06T05:20:18.319Z,2.58
2023-03-06T05:23:20.937Z,2.60
2023-03-06T05:26:23.614Z,2.50
2023-03-06T05:29:26.407Z,2.40
2023-03-06T05:32:29.466Z,2.47
2023-03-06T05:35:32.400Z,3.00
2023-03-06T05:38:35.515Z,2.70
2023-03-06T05:41:38.354Z,2.50
2023-03-06T05:44:41.865Z,2.72
2023-03-06T05:47:44.492Z,2.97
2023-03-06T05:50:55.439Z,2.67
2023-03-06T05:53:58.431Z,2.50
2023-03-06T05:57:01.678Z,2.88
2023-03-06T06:00:05.556Z,2.78
2023-03-06T06:03:15.245Z,2.63
2023-03-06T06:06:18.173Z,2.72
2023-03-06T06:09:22.574Z,2.72
2023-03-06T06:12:27.272Z,2.80
2023-03-06T06:15:34.300Z,2.70
2023-03-06T06:18:40.624Z,2.50
2023-03-06T06:21:47.080Z,2.60
2023-03-06T06:24:50.532Z,3.35
2023-03-06T06:27:55.446Z,2.50
2023-03-06T06:30:58.264Z,2.92
2023-03-06T06:34:01.105Z,2.57
2023-03-06T06:37:06.088Z,2.50
2023-03-06T06:40:09.476Z,2.60
2023-03-06T06:43:12.793Z,2.42
2023-03-06T06:46:53.324Z,2.65
2023-03-06T06:49:39.683Z,2.80
2023-03-06T06:52:42.545Z,2.45
2023-03-06T06:55:54.182Z,2.60
2023-03-06T06:59:15.307Z,2.58
2023-03-06T07:02:20.885Z,2.55
2023-03-06T07:05:24.087Z,2.33
2023-03-06T07:08:27.124Z,2.78
2023-03-06T07:11:29.927Z,2.83
2023-03-06T07:14:35.126Z,2.90
2023-03-06T07:17:38.208Z,2.83
2023-03-06T07:20:41.389Z,2.40
2023-03-06T07:23:44.726Z,2.47
2023-03-06T07:26:48.296Z,2.97
2023-03-06T07:29:51.421Z,2.65
2023-03-06T07:32:58.520Z,2.45
2023-03-06T07:36:04.237Z,2.50
2023-03-06T07:39:08.666Z,2.70
2023-03-06T07:42:13.896Z,2.72
2023-03-06T07:45:25.292Z,2.50
2023-03-06T07:48:31.190Z,2.58
2023-03-06T07:51:41.589Z,2.60
2023-03-06T07:54:44.217Z,2.38
2023-03-06T07:57:50.752Z,2.80
2023-03-06T08:00:54.626Z,2.53
2023-03-06T08:03:58.861Z,2.67
2023-03-06T08:07:01.573Z,2.40
2023-03-06T08:10:05.659Z,2.63
2023-03-06T08:13:09.073Z,2.60
2023-03-06T08:16:59.211Z,2.58
2023-03-06T08:20:07.420Z,2.75
2023-03-06T08:23:11.275Z,2.50
2023-03-06T08:26:22.241Z,2.75
2023-03-06T08:29:25.403Z,2.80
2023-03-06T08:32:29.071Z,2.80
2023-03-06T08:35:35.538Z,2.58
2023-03-06T08:38:39.061Z,2.63
2023-03-06T08:41:44.572Z,2.60
2023-03-06T08:44:47.236Z,2.35
2023-03-06T08:47:51.357Z,2.40
2023-03-06T08:50:55.925Z,3.25
2023-03-06T08:54:02.088Z,2.60
2023-03-06T08:57:06.732Z,2.70
2023-03-06T09:00:11.056Z,2.97
2023-03-06T09:03:13.985Z,4.30
2023-03-06T09:06:19.811Z,3.03
2023-03-06T09:09:22.976Z,3.27
2023-03-06T09:12:26.178Z,3.35
2023-03-06T09:15:29.905Z,3.05
2023-03-06T09:18:35.782Z,3.30
2023-03-06T09:21:41.159Z,3.22
2023-03-06T09:24:43.950Z,3.27
2023-03-06T09:28:01.810Z,3.00
2023-03-06T09:31:14.264Z,3.28
2023-03-06T09:34:17.178Z,2.80
2023-03-06T09:37:19.822Z,3.17
2023-03-06T09:40:48.249Z,3.23
2023-03-06T09:43:55.246Z,3.25
2023-03-06T09:47:20.685Z,3.55
2023-03-06T09:50:37.951Z,3.60
2023-03-06T09:54:08.578Z,3.97
2023-03-06T09:57:35.356Z,3.50
2023-03-06T10:00:47.906Z,4.30
2023-03-06T10:04:02.885Z,3.47
2023-03-06T10:07:28.490Z,3.65
2023-03-06T10:10:50.356Z,3.50
2023-03-06T10:14:14.074Z,3.20
2023-03-06T10:17:24.113Z,3.03
2023-03-06T10:20:36.657Z,3.42
2023-03-06T10:23:46.356Z,3.28
2023-03-06T10:27:01.165Z,3.40
2023-03-06T10:30:28.088Z,2.90
2023-03-06T10:33:50.939Z,3.17
2023-03-06T10:36:53.725Z,2.90
2023-03-06T10:40:08.433Z,2.78
2023-03-06T10:43:14.531Z,3.15
2023-03-06T10:46:32.645Z,3.33
2023-03-06T10:49:38.948Z,2.88
2023-03-06T10:52:41.669Z,3.10
2023-03-06T10:55:53.932Z,3.05
2023-03-06T10:59:19.209Z,3.35
2023-03-06T11:02:34.355Z,3.07
2023-03-06T11:05:37.817Z,2.78
2023-03-06T11:08:44.028Z,3.78
2023-03-06T11:11:47.500Z,3.35
2023-03-06T11:15:23.604Z,3.10
2023-03-06T11:18:36.058Z,2.83
2023-03-06T11:21:40.537Z,3.20
2023-03-06T11:24:48.737Z,3.97
2023-03-06T11:27:58.029Z,2.90
2023-03-06T11:31:12.654Z,3.28
2023-03-06T11:34:27.499Z,3.53
2023-03-06T11:37:39.361Z,2.88
2023-03-06T11:40:56.441Z,2.80
2023-03-06T11:44:37.475Z,3.15
2023-03-06T11:47:46.442Z,3.05
2023-03-06T11:50:52.699Z,3.50
2023-03-06T11:53:58.741Z,3.10
2023-03-06T11:57:21.896Z,3.25
2023-03-06T12:01:07.101Z,3.17
2023-03-06T12:04:42.043Z,3.70
2023-03-06T12:08:03.370Z,2.97
2023-03-06T12:11:24.444Z,3.10
2023-03-06T12:14:54.458Z,3.40
2023-03-06T12:18:24.240Z,3.22
2023-03-06T12:21:35.917Z,3.42
2023-03-06T12:25:05.403Z,3.63
2023-03-06T12:28:29.200Z,3.30
2023-03-06T12:32:11.356Z,2.75
2023-03-06T12:35:33.874Z,3.17
2023-03-06T12:38:56.207Z,3.40
2023-03-06T12:42:32.875Z,3.23
2023-03-06T12:45:39.209Z,3.33
2023-03-06T12:48:46.999Z,3.30
2023-03-06T12:51:51.308Z,3.45
2023-03-06T12:54:54.794Z,3.50
2023-03-06T12:58:30.290Z,3.17
2023-03-06T13:01:48.278Z,3.33
2023-03-06T13:05:10.919Z,3.50
2023-03-06T13:08:52.861Z,2.90
2023-03-06T13:12:37.536Z,2.90
2023-03-06T13:16:10.718Z,3.67
2023-03-06T13:19:26.285Z,5.45
2023-03-06T13:22:29.995Z,4.75
2023-03-06T13:25:34.969Z,5.30
2023-03-06T13:28:50.075Z,5.50
2023-03-06T13:32:16.433Z,4.37
2023-03-06T13:35:34.414Z,4.72
2023-03-06T13:38:40.160Z,5.38
2023-03-06T13:42:01.368Z,4.55
2023-03-06T13:45:15.857Z,4.63
2023-03-06T13:48:47.668Z,4.70
2023-03-06T13:51:53.214Z,4.38
2023-03-06T13:55:13.210Z,4.95
2023-03-06T13:58:18.963Z,5.20
2023-03-06T14:01:23.861Z,5.00
2023-03-06T14:04:57.760Z,4.20
2023-03-06T14:08:09.292Z,3.70
2023-03-06T14:11:21.553Z,3.20
2023-03-06T14:14:34.645Z,3.35
2023-03-06T14:17:39.264Z,3.28
2023-03-06T14:20:46.036Z,3.60
2023-03-06T14:24:00.544Z,3.42
2023-03-06T14:27:04.240Z,3.20
2023-03-06T14:30:13.316Z,3.60
2023-03-06T14:33:35.068Z,3.30
2023-03-06T14:36:46.750Z,3.37
2023-03-06T14:39:49.748Z,3.40
2023-03-06T14:43:23.787Z,3.88
2023-03-06T14:46:26.589Z,3.22
2023-03-06T14:49:29.502Z,3.45
2023-03-06T14:52:32.628Z,3.23
2023-03-06T14:55:36.176Z,3.03
2023-03-06T14:58:59.511Z,3.45
2023-03-06T15:02:06.144Z,3.15
2023-03-06T15:05:22.998Z,3.45
2023-03-06T15:08:31.963Z,3.17
2023-03-06T15:11:55.342Z,3.42
2023-03-06T15:15:01.342Z,3.33
2023-03-06T15:18:28.800Z,3.10
2023-03-06T15:21:38.687Z,3.47
2023-03-06T15:24:41.586Z,3.47
2023-03-06T15:28:01.124Z,3.13
2023-03-06T15:31:05.150Z,3.72
2023-03-06T15:34:09.344Z,3.03
2023-03-06T15:37:29.147Z,3.22
2023-03-06T15:40:32.138Z,3.37
2023-03-06T15:43:38.397Z,3.30
2023-03-06T15:46:41.914Z,3.10
2023-03-06T15:49:44.892Z,2.92
2023-03-06T15:52:48.640Z,3.15
2023-03-06T15:55:52.834Z,2.93
2023-03-06T15:58:57.200Z,3.00
2023-03-06T16:02:11.150Z,3.63
2023-03-06T16:05:18.607Z,4.00
2023-03-06T16:08:24.830Z,3.22
2023-03-06T16:11:42.002Z,3.30
2023-03-06T16:14:48.904Z,5.70
2023-03-06T16:17:51.589Z,8.38
2023-03-06T16:20:54.663Z,8.48
2023-03-06T16:23:57.714Z,6.72
2023-03-06T16:27:01.933Z,6.63
2023-03-06T16:30:05.393Z,5.93
2023-03-06T16:33:11.433Z,5.93
2023-03-06T16:36:18.476Z,5.60
2023-03-06T16:39:24.367Z,5.82
2023-03-06T16:42:27.214Z,4.97
2023-03-06T16:45:31.362Z,5.15
2023-03-06T16:48:35.398Z,5.78
2023-03-06T16:51:40.601Z,5.53
2023-03-06T16:54:45.385Z,5.30
2023-03-06T16:57:48.472Z,4.90
2023-03-06T17:00:51.519Z,5.55
2023-03-06T17:03:56.457Z,4.85
2023-03-06T17:06:59.594Z,5.05
2023-03-06T17:10:03.278Z,5.05
2023-03-06T17:13:07.956Z,5.03
2023-03-06T17:16:16.643Z,5.30
2023-03-06T17:19:20.904Z,5.00
2023-03-06T17:22:24.109Z,4.55
2023-03-06T17:25:27.330Z,5.45
2023-03-06T17:28:32.132Z,5.07
2023-03-06T17:31:35.409Z,5.03
2023-03-06T17:34:38.584Z,5.07
2023-03-06T17:37:41.832Z,5.45
2023-03-06T17:40:45.016Z,4.55
2023-03-06T17:43:49.468Z,4.93
2023-03-06T17:46:53.064Z,3.97
2023-03-06T17:49:57.723Z,4.60
2023-03-06T17:53:00.708Z,4.45
2023-03-06T17:56:05.927Z,4.32
2023-03-06T17:59:11.068Z,4.07
2023-03-06T18:02:15.210Z,4.40
2023-03-06T18:05:21.476Z,5.18
2023-03-06T18:08:27.423Z,4.80
2023-03-06T18:11:33.446Z,4.35
2023-03-06T18:14:37.612Z,4.40
2023-03-06T18:17:41.216Z,3.85
2023-03-06T18:20:47.284Z,4.05
2023-03-06T18:23:51.587Z,4.25
2023-03-06T18:26:55.818Z,4.10
2023-03-06T18:29:59.795Z,4.90
2023-03-06T18:33:03.794Z,5.43
2023-03-06T18:36:07.855Z,4.47
2023-03-06T18:39:15.140Z,3.97
2023-03-06T18:42:19.027Z,3.97
2023-03-06T18:45:22.228Z,4.40
2023-03-06T18:48:26.244Z,4.30
2023-03-06T18:51:30.663Z,4.40
2023-03-06T18:54:34.305Z,4.10
2023-03-06T18:57:38.640Z,4.10
2023-03-06T19:00:45.842Z,3.97
2023-03-06T19:03:50.079Z,4.18
2023-03-06T19:06:54.809Z,4.85
2023-03-06T19:09:57.784Z,3.90
2023-03-06T19:13:01.094Z,4.22
2023-03-06T19:16:04.955Z,4.07
2023-03-06T19:19:10.027Z,4.22
2023-03-06T19:22:13.684Z,4.00
2023-03-06T19:25:17.617Z,3.90
2023-03-06T19:28:21.639Z,4.18
2023-03-06T19:31:28.261Z,4.40
2023-03-06T19:34:33.820Z,3.65
2023-03-06T19:37:37.912Z,4.10
2023-03-06T19:40:48.559Z,3.97
2023-03-06T19:43:55.254Z,4.50
2023-03-06T19:46:59.548Z,3.97
2023-03-06T19:50:07.168Z,3.58
2023-03-06T19:53:12.214Z,3.80
2023-03-06T19:56:21.817Z,3.50
2023-03-06T19:59:25.575Z,4.05
2023-03-06T20:02:29.971Z,3.50
2023-03-06T20:05:34.177Z,3.85
2023-03-06T20:08:38.580Z,4.05
2023-03-06T20:11:41.857Z,3.70
2023-03-06T20:14:47.825Z,3.35
2023-03-06T20:17:56.645Z,3.70
2023-03-06T20:21:02.535Z,3.17
2023-03-06T20:24:08.976Z,3.60
2023-03-06T20:27:15.493Z,3.45
2023-03-06T20:30:18.842Z,4.03
2023-03-06T20:33:23.193Z,3.40
2023-03-06T20:36:36.669Z,3.95
2023-03-06T20:39:43.062Z,4.03
2023-03-06T20:42:46.828Z,4.07
2023-03-06T20:46:01.466Z,4.00
2023-03-06T20:49:05.510Z,3.50
2023-03-06T20:52:08.852Z,4.05
2023-03-06T20:55:12.127Z,3.70
2023-03-06T20:58:17.902Z,3.83
2023-03-06T21:01:22.848Z,4.00
2023-03-06T21:04:26.383Z,3.40
2023-03-06T21:07:29.891Z,3.70
2023-03-06T21:10:33.275Z,3.90
2023-03-06T21:13:36.335Z,3.60
2023-03-06T21:16:39.607Z,4.03
2023-03-06T21:19:42.825Z,3.57
2023-03-06T21:22:49.138Z,3.30
2023-03-06T21:25:52.932Z,4.10
2023-03-06T21:28:59.362Z,3.72
2023-03-06T21:32:02.229Z,3.72
2023-03-06T21:35:05.323Z,3.83
2023-03-06T21:38:08.225Z,3.88
2023-03-06T21:41:16.958Z,4.38
2023-03-06T21:44:19.841Z,3.80
2023-03-06T21:47:22.469Z,3.70
2023-03-06T21:50:25.780Z,3.63
2023-03-06T21:53:28.328Z,3.50
2023-03-06T21:56:33.167Z,3.83
2023-03-06T21:59:36.766Z,3.60
2023-03-06T22:02:39.397Z,3.75
2023-03-06T22:05:43.336Z,3.27
2023-03-06T22:08:46.941Z,3.63
2023-03-06T22:11:49.721Z,3.40
2023-03-06T22:14:52.473Z,3.33
2023-03-06T22:17:55.138Z,3.75
2023-03-06T22:20:58.114Z,3.70
2023-03-06T22:24:00.789Z,3.50
2023-03-06T22:27:03.676Z,3.40
2023-03-06T22:30:07.108Z,3.47
2023-03-06T22:33:09.857Z,3.60
2023-03-06T22:36:14.804Z,3.57
2023-03-06T22:39:17.410Z,3.70
2023-03-06T22:42:20.216Z,3.67
2023-03-06T22:45:22.803Z,3.85
2023-03-06T22:48:25.430Z,3.80
2023-03-06T22:51:29.753Z,3.57
2023-03-06T22:54:32.374Z,3.00
2023-03-06T22:57:34.962Z,3.70
2023-03-06T23:00:37.583Z,3.45
2023-03-06T23:03:42.544Z,3.30
2023-03-06T23:06:47.105Z,3.70
2023-03-06T23:09:49.781Z,3.70
2023-03-06T23:13:11.730Z,3.45
2023-03-06T23:16:33.533Z,3.25
2023-03-06T23:19:54.773Z,3.70
2023-03-06T23:23:16.219Z,3.10
2023-03-06T23:26:21.510Z,3.50
2023-03-06T23:29:24.323Z,3.65
2023-03-06T23:32:27.444Z,3.30
2023-03-06T23:35:30.224Z,3.75
2023-03-06T23:38:33.135Z,3.83
2023-03-06T23:41:36.111Z,3.60
2023-03-06T23:44:38.627Z,4.10
2023-03-06T23:47:41.294Z,3.78
2023-03-06T23:50:44.131Z,3.83
2023-03-06T23:53:52.663Z,3.93
2023-03-06T23:56:55.390Z,3.70
2023-03-06T23:59:57.980Z,3.53
